Time;durP1;ratioP1;P1;durP2;ratioP2;P2;SDS_P1;SDS_P2;PMS_P1;PMS_P2;Temp;Humidity;BMP_temperature;BMP_pressure;BME280_temperature;BME280_humidity;BME280_pressure;Samples;Min_cycle;Max_cycle;Signal;HPM_P1;HPM_P2
2023/05/16 00:00:09;;;;;;;10.10;6.07;;;;;;;15.88;84.50;100858.13;4995347;28;20033;-84
2023/05/16 00:02:36;;;;;;;10.73;6.45;;;;;;;15.78;84.37;100832.63;4995338;28;20076;-83
2023/05/16 00:05:03;;;;;;;9.05;6.68;;;;;;;15.87;84.38;100840.78;4979236;28;20675;-84
2023/05/16 00:07:29;;;;;;;12.02;6.22;;;;;;;16.00;83.29;100852.88;5011060;28;20101;-85
2023/05/16 00:09:55;;;;;;;13.90;7.47;;;;;;;15.92;83.29;100860.41;5011361;28;20116;-84
2023/05/16 00:12:21;;;;;;;9.25;5.80;;;;;;;15.93;83.28;100876.91;5012296;28;20033;-84
2023/05/16 00:14:47;;;;;;;10.80;6.95;;;;;;;15.95;84.10;100885.47;5011317;28;20025;-84
2023/05/16 00:17:13;;;;;;;7.68;5.53;;;;;;;15.92;84.38;100883.88;5011271;28;20030;-84
2023/05/16 00:19:39;;;;;;;8.60;6.20;;;;;;;15.97;84.21;100878.38;4994807;28;20030;-84
2023/05/16 00:22:04;;;;;;;9.38;6.28;;;;;;;15.87;83.79;100851.22;4994931;28;20026;-84
2023/05/16 00:24:31;;;;;;;13.50;7.22;;;;;;;16.01;83.62;100870.22;4994767;28;20740;-84
2023/05/16 00:26:56;;;;;;;11.30;7.22;;;;;;;15.92;83.95;100862.16;4994560;28;20083;-84
2023/05/16 00:29:23;;;;;;;9.02;6.18;;;;;;;15.98;84.05;100864.38;5011957;28;20030;-84
2023/05/16 00:31:49;;;;;;;12.20;5.72;;;;;;;15.87;83.87;100827.75;4995032;28;20038;-84
2023/05/16 00:34:14;;;;;;;9.80;6.32;;;;;;;15.86;83.80;100828.69;5010892;28;20108;-85
2023/05/16 00:36:40;;;;;;;11.13;7.03;;;;;;;15.93;83.84;100835.16;5012056;28;20052;-84
2023/05/16 00:39:05;;;;;;;9.00;6.13;;;;;;;15.93;83.95;100849.06;5010528;28;20057;-84
2023/05/16 00:41:32;;;;;;;11.13;6.18;;;;;;;15.92;83.98;100857.78;4993996;28;20034;-84
2023/05/16 00:43:57;;;;;;;9.15;6.57;;;;;;;15.83;83.31;100844.53;4994578;28;20554;-84
2023/05/16 00:46:23;;;;;;;11.25;6.75;;;;;;;15.69;83.23;100820.22;5010430;28;20030;-84
2023/05/16 00:48:48;;;;;;;7.65;5.35;;;;;;;15.81;82.94;100830.75;4994334;28;20483;-84
2023/05/16 00:51:14;;;;;;;11.65;6.97;;;;;;;15.91;82.41;100844.84;4994035;28;20515;-84
2023/05/16 00:53:40;;;;;;;10.20;6.60;;;;;;;15.89;83.30;100854.56;5010230;28;20462;-84
2023/05/16 00:56:05;;;;;;;8.63;5.80;;;;;;;15.85;82.17;100827.03;5010074;28;20056;-84
2023/05/16 00:58:32;;;;;;;7.47;5.40;;;;;;;15.63;81.70;100789.34;4977960;28;20125;-84
2023/05/16 01:00:58;;;;;;;8.70;6.05;;;;;;;15.86;81.08;100826.91;5010391;28;20406;-84
2023/05/16 01:03:24;;;;;;;8.60;6.18;;;;;;;15.86;80.39;100818.25;4994211;28;20026;-85
2023/05/16 01:05:49;;;;;;;9.50;5.47;;;;;;;15.87;80.88;100825.97;5010108;28;20030;-84
2023/05/16 01:08:15;;;;;;;21.17;6.20;;;;;;;15.83;81.12;100841.91;4993702;28;20451;-83
2023/05/16 01:11:01;;;;;;;10.27;5.88;;;;;;;15.80;82.60;100865.59;5010080;28;20030;-84
2023/05/16 01:13:32;;;;;;;6.05;4.40;;;;;;;15.77;82.58;100877.09;5010833;28;20129;-84
2023/05/16 01:16:12;;;;;;;8.85;6.03;;;;;;;15.68;83.43;100888.97;4994015;28;20076;-85
2023/05/16 01:18:45;;;;;;;9.52;5.53;;;;;;;15.68;82.91;100857.66;4994642;28;20412;-85
2023/05/16 01:21:46;;;;;;;9.68;5.82;;;;;;;15.64;81.92;100827.53;4994340;28;20053;-84
2023/05/16 01:24:33;;;;;;;9.50;5.32;;;;;;;15.66;80.73;100828.25;5009305;28;20038;-84
2023/05/16 01:26:59;;;;;;;7.43;5.15;;;;;;;15.44;80.53;100781.06;4993688;28;20135;-83
2023/05/16 01:29:25;;;;;;;10.00;5.55;;;;;;;15.59;80.49;100802.66;5011245;28;20488;-84
2023/05/16 01:31:50;;;;;;;10.10;5.20;;;;;;;15.61;80.56;100808.63;4993567;28;20505;-84
2023/05/16 01:34:16;;;;;;;7.20;4.70;;;;;;;15.67;80.92;100822.09;4993040;28;20482;-84
2023/05/16 01:37:13;;;;;;;12.13;5.47;;;;;;;15.57;81.67;100818.41;5010195;28;20026;-84
2023/05/16 01:39:44;;;;;;;9.82;5.65;;;;;;;15.55;80.92;100841.16;4996010;28;20046;-84
2023/05/16 01:42:13;;;;;;;8.82;4.10;;;;;;;15.56;80.92;100847.19;4994084;28;20483;-84
2023/05/16 01:44:51;;;;;;;8.48;5.30;;;;;;;15.50;80.61;100845.81;4993563;28;20017;-84
2023/05/16 01:47:18;;;;;;;8.80;4.75;;;;;;;15.32;80.47;100813.13;5010729;28;20022;-84
2023/05/16 01:50:03;;;;;;;17.60;4.88;;;;;;;15.53;80.98;100827.34;4977395;28;20190;-83
2023/05/16 01:52:55;;;;;;;6.47;4.05;;;;;;;15.50;80.14;100831.00;5009516;28;20084;-85
2023/05/16 01:55:36;;;;;;;10.90;4.75;;;;;;;15.46;79.65;100832.16;4993030;28;20026;-83
2023/05/16 01:58:04;;;;;;;7.13;4.22;;;;;;;15.32;78.85;100807.91;5010617;28;20018;-84
2023/05/16 02:00:30;;;;;;;5.85;4.00;;;;;;;15.43;77.20;100826.28;4993202;28;20025;-83
2023/05/16 02:02:56;;;;;;;8.65;4.70;;;;;;;15.30;77.11;100822.81;5009581;28;20041;-85
2023/05/16 02:05:21;;;;;;;6.32;3.95;;;;;;;15.43;78.54;100849.75;4977136;28;20109;-84
2023/05/16 02:07:47;;;;;;;5.60;3.78;;;;;;;15.37;78.46;100852.78;5009322;28;20533;-84
2023/05/16 02:10:12;;;;;;;7.43;4.13;;;;;;;15.31;77.12;100855.78;4993260;28;20029;-83
2023/05/16 02:12:38;;;;;;;5.47;4.28;;;;;;;15.26;77.27;100839.63;4995018;28;20108;-83
2023/05/16 02:15:04;;;;;;;8.02;4.93;;;;;;;15.34;77.53;100852.94;4997214;28;20026;-84
2023/05/16 02:17:30;;;;;;;7.88;5.00;;;;;;;15.37;75.97;100856.22;5013400;28;20025;-84
2023/05/16 02:19:55;;;;;;;6.75;4.35;;;;;;;15.37;75.10;100831.91;4997016;28;20030;-84
2023/05/16 02:22:21;;;;;;;9.10;4.53;;;;;;;15.38;75.25;100833.59;5014087;28;20141;-84
2023/05/16 02:24:46;;;;;;;8.55;4.07;;;;;;;15.45;75.07;100853.94;4997104;28;20026;-84
2023/05/16 02:27:11;;;;;;;6.38;4.70;;;;;;;15.28;75.27;100837.72;5013013;28;20025;-84
2023/05/16 02:29:37;;;;;;;8.73;3.70;;;;;;;15.12;75.16;100840.47;5013185;28;20034;-83
2023/05/16 02:32:03;;;;;;;7.07;3.75;;;;;;;15.30;75.67;100898.41;4996724;28;20026;-84
2023/05/16 02:34:29;;;;;;;5.43;3.85;;;;;;;15.23;75.95;100891.91;5013144;28;20065;-84
2023/05/16 02:36:54;;;;;;;6.95;3.70;;;;;;;15.18;75.16;100879.19;5012978;28;20030;-83
2023/05/16 02:39:20;;;;;;;7.03;3.70;;;;;;;15.26;74.65;100889.97;4996708;28;20054;-84
2023/05/16 02:41:45;;;;;;;7.72;4.18;;;;;;;15.27;73.96;100894.25;4980497;28;20435;-84
2023/05/16 02:44:11;;;;;;;7.35;4.18;;;;;;;15.21;74.06;100877.22;5012677;28;20033;-84
2023/05/16 02:46:36;;;;;;;4.88;3.63;;;;;;;15.28;74.33;100864.63;5012873;28;20026;-84
2023/05/16 02:49:02;;;;;;;5.68;4.07;;;;;;;15.27;74.67;100856.91;5014101;28;20049;-85
2023/05/16 02:51:27;;;;;;;8.65;3.67;;;;;;;15.28;75.16;100864.63;4996159;28;20034;-83
2023/05/16 02:53:55;;;;;;;6.18;4.07;;;;;;;15.10;74.90;100851.00;4996275;28;20034;-84
2023/05/16 02:56:21;;;;;;;5.65;4.00;;;;;;;15.20;75.06;100846.03;4980791;28;20491;-85
2023/05/16 02:58:47;;;;;;;8.73;4.05;;;;;;;15.20;75.20;100830.41;4996441;28;20033;-83
2023/05/16 03:01:13;;;;;;;7.80;4.85;;;;;;;15.31;74.27;100853.16;4996144;28;20392;-83
2023/05/16 03:03:38;;;;;;;7.75;4.80;;;;;;;15.13;75.39;100829.13;5012520;28;20037;-83
2023/05/16 03:06:04;;;;;;;9.00;4.03;;;;;;;15.23;77.57;100852.81;5012193;28;20419;-84
2023/05/16 03:08:30;;;;;;;12.75;4.53;;;;;;;15.13;77.50;100845.59;4996227;28;20037;-84
2023/05/16 03:10:55;;;;;;;7.32;4.75;;;;;;;15.16;77.65;100861.06;4996238;28;20030;-83
2023/05/16 03:13:21;;;;;;;7.25;4.72;;;;;;;15.15;77.29;100861.16;5012428;28;20053;-83
2023/05/16 03:15:47;;;;;;;7.05;4.68;;;;;;;15.05;77.77;100847.03;4995980;28;20026;-83
2023/05/16 03:18:12;;;;;;;7.05;5.18;;;;;;;15.13;77.58;100852.56;5012649;28;20038;-83
2023/05/16 03:20:38;;;;;;;9.18;4.47;;;;;;;15.18;76.20;100855.75;5011925;28;20084;-83
2023/05/16 03:23:07;;;;;;;11.02;5.72;;;;;;;15.20;76.42;100867.72;4995225;28;20041;-83
2023/05/16 03:25:33;;;;;;;6.07;4.05;;;;;;;15.01;77.05;100843.78;4995541;28;20045;-83
2023/05/16 03:27:59;;;;;;;5.07;3.95;;;;;;;15.08;78.02;100867.69;5011927;28;20068;-83
2023/05/16 03:30:25;;;;;;;9.45;5.57;;;;;;;14.98;77.82;100870.03;5011930;28;20092;-83
2023/05/16 03:32:51;;;;;;;9.10;5.47;;;;;;;14.92;77.84;100875.63;5012056;28;20463;-84
2023/05/16 03:35:16;;;;;;;9.10;5.10;;;;;;;14.92;78.02;100873.00;5009924;28;20498;-85
2023/05/16 03:37:42;;;;;;;8.02;5.28;;;;;;;14.97;78.38;100881.41;4995401;28;20038;-86
2023/05/16 03:40:08;;;;;;;8.38;5.80;;;;;;;14.99;77.75;100894.31;5012952;28;20049;-84
2023/05/16 03:42:34;;;;;;;7.18;5.15;;;;;;;14.92;78.25;100893.84;5011465;28;20030;-83
2023/05/16 03:44:59;;;;;;;7.72;4.82;;;;;;;14.85;79.42;100893.44;4995608;28;20026;-84
2023/05/16 03:47:24;;;;;;;8.05;5.43;;;;;;;14.81;79.79;100872.84;5011617;28;20487;-85
2023/05/16 03:49:50;;;;;;;8.45;5.85;;;;;;;14.80;79.36;100879.00;4994911;28;20026;-84
2023/05/16 03:52:15;;;;;;;9.10;5.63;;;;;;;14.81;79.48;100880.66;4978811;28;20492;-86
2023/05/16 03:54:41;;;;;;;7.93;5.82;;;;;;;14.71;80.12;100869.16;4994941;28;20496;-84
2023/05/16 03:57:06;;;;;;;9.02;6.10;;;;;;;14.84;80.83;100883.06;5011463;28;20057;-84
2023/05/16 03:59:33;;;;;;;16.63;10.27;;;;;;;14.91;80.18;100886.97;4995192;28;20026;-87
2023/05/16 04:01:58;;;;;;;8.13;6.07;;;;;;;14.89;79.58;100883.63;5011772;28;20034;-87
2023/05/16 04:04:24;;;;;;;8.85;4.82;;;;;;;14.93;79.25;100908.56;5010845;28;20119;-87
2023/05/16 04:06:50;;;;;;;10.52;5.38;;;;;;;14.84;80.17;100907.34;5011110;28;20038;-86
2023/05/16 04:09:15;;;;;;;7.78;6.15;;;;;;;14.89;80.31;100904.47;5011066;28;20026;-88
2023/05/16 04:11:41;;;;;;;8.02;4.93;;;;;;;14.81;79.85;100891.09;5010946;28;20034;-87
2023/05/16 04:14:07;;;;;;;9.80;5.80;;;;;;;15.01;79.38;100892.44;5010555;28;20406;-88
2023/05/16 04:16:32;;;;;;;8.73;6.97;;;;;;;15.06;80.01;100904.25;4976593;28;20092;-87
2023/05/16 04:18:58;;;;;;;10.20;7.22;;;;;;;14.89;80.35;100894.06;5011990;28;20022;-86
2023/05/16 04:21:23;;;;;;;21.27;13.05;;;;;;;14.97;80.50;100902.25;4994253;28;20040;-88
2023/05/16 04:23:49;;;;;;;11.60;7.35;;;;;;;15.00;80.22;100901.19;5010268;28;20088;-91
2023/05/16 04:26:14;;;;;;;9.93;7.30;;;;;;;14.91;80.65;100873.94;5012754;28;20022;-90
2023/05/16 04:28:40;;;;;;;10.30;7.35;;;;;;;15.05;80.55;100904.38;5012461;28;20033;-90
2023/05/16 04:31:06;;;;;;;9.35;6.78;;;;;;;14.80;80.22;100847.75;4994469;28;20476;-86
2023/05/16 04:33:32;;;;;;;11.05;7.45;;;;;;;15.07;80.10;100877.28;5011685;28;20434;-91
2023/05/16 04:35:58;;;;;;;9.43;6.13;;;;;;;15.05;80.46;100899.16;4980666;28;20036;-93
2023/05/16 04:38:23;;;;;;;10.25;5.88;;;;;;;14.89;80.16;100883.63;4997145;28;20530;-88
2023/05/16 04:40:50;;;;;;;11.32;6.35;;;;;;;14.84;80.27;100862.25;5011412;28;20037;-86
2023/05/16 04:43:15;;;;;;;11.73;6.47;;;;;;;14.95;79.98;100878.06;4995095;28;20044;-86
2023/05/16 04:45:41;;;;;;;9.20;6.75;;;;;;;14.93;79.68;100900.75;5015632;28;20030;-92
2023/05/16 04:48:07;;;;;;;6.97;5.15;;;;;;;14.95;78.33;100898.91;5013123;28;20026;-91
2023/05/16 04:50:32;;;;;;;10.13;5.00;;;;;;;14.98;78.32;100903.91;4996064;28;20061;-90
2023/05/16 04:52:58;;;;;;;15.90;10.00;;;;;;;14.76;78.80;100872.31;5010555;28;20083;-89
2023/05/16 04:55:23;;;;;;;11.93;5.57;;;;;;;14.98;78.66;100887.44;4993944;28;20045;-85
2023/05/16 04:57:49;;;;;;;24.65;14.32;;;;;;;14.87;77.61;100870.72;5006991;28;20041;-82
2023/05/16 05:00:16;;;;;;;16.90;7.88;;;;;;;14.92;76.16;100894.69;5011229;28;20091;-89
2023/05/16 05:02:42;;;;;;;12.60;7.25;;;;;;;14.96;76.53;100905.78;4993688;28;20058;-90
2023/05/16 05:05:08;;;;;;;12.95;7.40;;;;;;;14.96;78.33;100905.78;4995992;28;20038;-90
2023/05/16 05:07:33;;;;;;;10.15;7.03;;;;;;;14.92;78.75;100901.66;4974895;28;20164;-93
2023/05/16 05:09:59;;;;;;;8.13;5.32;;;;;;;15.03;78.78;100917.47;5015531;28;20034;-90
2023/05/16 05:12:26;;;;;;;9.57;5.32;;;;;;;15.02;78.27;100931.44;5003538;28;20033;-90
2023/05/16 05:14:52;;;;;;;8.35;6.32;;;;;;;14.96;77.84;100916.19;4999043;28;20026;-93
2023/05/16 05:17:20;;;;;;;8.15;5.97;;;;;;;14.93;77.31;100892.91;4985417;28;20522;-90
2023/05/16 05:19:46;;;;;;;10.70;6.63;;;;;;;15.10;75.83;100907.50;5017363;28;20060;-90
2023/05/16 05:22:11;;;;;;;11.82;6.75;;;;;;;15.02;76.00;100886.31;5018569;28;20033;-87
2023/05/16 05:24:37;;;;;;;9.32;7.00;;;;;;;15.13;76.22;100902.91;5021867;28;20036;-81
2023/05/16 05:27:02;;;;;;;10.77;6.10;;;;;;;15.23;75.18;100889.31;5022414;28;20037;-82
2023/05/16 05:29:28;;;;;;;15.43;7.03;;;;;;;15.38;75.78;100889.16;4996988;28;20040;-87
2023/05/16 05:31:54;;;;;;;11.10;7.93;;;;;;;15.38;77.10;100890.94;5019359;28;20404;-81
2023/05/16 05:34:19;;;;;;;10.20;7.53;;;;;;;15.40;76.73;100907.31;5010492;28;20048;-91
2023/05/16 05:36:45;;;;;;;12.60;6.80;;;;;;;15.42;76.49;100879.38;4997958;28;20022;-92
2023/05/16 05:39:10;;;;;;;9.15;6.32;;;;;;;15.45;75.75;100897.44;4979097;28;20062;-91
2023/05/16 05:41:36;;;;;;;8.00;5.50;;;;;;;15.47;72.54;100882.53;4996780;28;20065;-90
2023/05/16 05:44:02;;;;;;;8.90;6.35;;;;;;;15.35;74.37;100850.28;5015768;28;20121;-89
2023/05/16 05:46:28;;;;;;;14.68;7.30;;;;;;;15.45;74.46;100877.41;5007554;28;20030;-85
2023/05/16 05:48:53;;;;;;;11.52;6.20;;;;;;;15.52;73.57;100864.78;5008986;28;20029;-87
2023/05/16 05:51:37;;;;;;;16.83;8.48;;;;;;;15.32;72.75;100849.63;5010796;28;20506;-86
2023/05/16 05:54:03;;;;;;;7.88;5.35;;;;;;;15.31;73.72;100858.38;5012440;28;20518;-88
2023/05/16 05:56:28;;;;;;;12.85;5.55;;;;;;;15.55;73.29;100877.66;4999987;28;20030;-91
2023/05/16 05:58:54;;;;;;;8.50;5.80;;;;;;;15.48;73.69;100886.81;5000520;28;20480;-91
2023/05/16 06:01:23;;;;;;;6.78;5.03;;;;;;;15.38;73.49;100886.56;4993066;28;20041;-87
2023/05/16 06:03:48;;;;;;;8.95;5.38;;;;;;;15.44;72.05;100872.31;4997095;28;20057;-89
2023/05/16 06:06:14;;;;;;;9.60;5.30;;;;;;;15.32;72.62;100807.91;5001396;28;20025;-94
2023/05/16 06:08:40;;;;;;;7.65;5.07;;;;;;;15.45;71.27;100824.44;5034231;28;20029;-93
2023/05/16 06:11:06;;;;;;;7.10;4.72;;;;;;;15.33;70.34;100815.63;5026980;28;20022;-87
2023/05/16 06:13:31;;;;;;;6.43;4.75;;;;;;;15.42;73.15;100851.53;5021906;28;20395;-90
2023/05/16 06:15:56;;;;;;;8.95;5.57;;;;;;;15.30;72.70;100890.59;5017893;28;20036;-93
2023/05/16 06:18:22;;;;;;;9.77;5.80;;;;;;;15.24;71.31;100854.50;5013736;28;20026;-91
2023/05/16 06:20:47;;;;;;;8.80;4.85;;;;;;;15.19;70.53;100850.41;4994740;28;20038;-90
2023/05/16 06:23:13;;;;;;;11.15;4.53;;;;;;;15.20;68.29;100851.25;5008685;28;20145;-88
2023/05/16 06:25:38;;;;;;;7.30;5.05;;;;;;;15.30;69.65;100838.47;5001673;28;20030;-86
2023/05/16 06:28:04;;;;;;;7.15;4.72;;;;;;;15.19;69.31;100840.00;4986380;28;20029;-87
2023/05/16 06:30:29;;;;;;;5.18;4.10;;;;;;;15.29;69.27;100865.47;5027778;28;20026;-89
2023/05/16 06:32:55;;;;;;;7.18;4.35;;;;;;;15.36;70.05;100870.19;4995781;28;20033;-89
2023/05/16 06:35:20;;;;;;;6.72;4.75;;;;;;;15.30;69.21;100901.84;5019031;28;20034;-92
2023/05/16 06:37:46;;;;;;;10.82;6.38;;;;;;;15.19;72.42;100928.59;4996352;28;20053;-92
2023/05/16 06:40:11;;;;;;;8.30;5.82;;;;;;;15.04;73.27;100900.06;5005946;28;20061;-85
2023/05/16 06:42:37;;;;;;;8.82;4.60;;;;;;;15.12;72.77;100895.22;5010801;28;20076;-83
2023/05/16 06:45:03;;;;;;;5.80;4.47;;;;;;;15.15;72.36;100908.91;4995206;28;20048;-88
2023/05/16 06:47:28;;;;;;;7.55;5.20;;;;;;;15.25;73.19;100916.13;4994809;28;20495;-89
2023/05/16 06:49:54;;;;;;;6.22;4.70;;;;;;;15.26;74.19;100909.97;5003779;28;20024;-91
2023/05/16 06:52:20;;;;;;;11.55;4.53;;;;;;;15.28;73.19;100879.44;5003001;28;20038;-93
2023/05/16 06:54:45;;;;;;;8.18;5.55;;;;;;;15.42;73.97;100874.16;4996016;28;20392;-92
2023/05/16 06:57:12;;;;;;;6.88;4.40;;;;;;;15.43;74.35;100878.44;4989600;28;20118;-89
2023/05/16 06:59:37;;;;;;;8.90;4.93;;;;;;;15.39;74.79;100863.94;5012745;28;20034;-93
2023/05/16 07:02:03;;;;;;;81.22;41.40;;;;;;;15.44;74.30;100854.88;5031240;28;20084;-92
2023/05/16 07:04:29;;;;;;;43.92;25.77;;;;;;;15.40;71.67;100821.28;5002219;28;20487;-89
2023/05/16 07:06:54;;;;;;;10.10;6.70;;;;;;;15.52;70.99;100825.69;4996397;28;20030;-87
2023/05/16 07:09:20;;;;;;;10.10;5.10;;;;;;;15.50;68.62;100833.59;4995780;28;20099;-86
2023/05/16 07:11:45;;;;;;;7.50;4.72;;;;;;;15.47;67.41;100864.28;5030543;28;20038;-87
2023/05/16 07:14:11;;;;;;;6.82;3.97;;;;;;;15.51;67.25;100886.59;5014471;28;20021;-87
2023/05/16 07:16:36;;;;;;;5.70;4.18;;;;;;;15.50;68.35;100892.75;5012166;28;20026;-86
2023/05/16 07:19:01;;;;;;;5.60;3.65;;;;;;;15.51;67.96;100881.38;5020977;28;20091;-87
2023/05/16 07:21:28;;;;;;;5.60;4.05;;;;;;;15.61;65.52;100871.22;5010898;28;20034;-90
2023/05/16 07:23:53;;;;;;;9.77;3.80;;;;;;;15.64;64.99;100844.94;5019133;28;20036;-87
2023/05/16 07:26:21;;;;;;;18.90;6.65;;;;;;;15.55;65.39;100829.88;4995627;28;20038;-90
2023/05/16 07:28:48;;;;;;;8.07;5.15;;;;;;;15.49;65.46;100841.53;5026840;28;20057;-88
2023/05/16 07:31:13;;;;;;;14.93;8.20;;;;;;;15.58;64.82;100847.91;5031746;28;20028;-89
2023/05/16 07:33:39;;;;;;;9.65;4.30;;;;;;;15.54;64.89;100844.69;5019967;28;20038;-90
2023/05/16 07:36:05;;;;;;;7.53;3.80;;;;;;;15.59;65.28;100868.69;4996957;28;20029;-93
2023/05/16 07:38:30;;;;;;;8.45;4.75;;;;;;;15.67;66.08;100876.88;5013471;28;20050;-91
2023/05/16 07:40:56;;;;;;;6.32;4.07;;;;;;;15.68;66.43;100881.13;4992252;28;20653;-91
2023/05/16 07:45:56;;;;;;;6.22;3.42;;;;;;;15.61;66.27;100876.44;5319034;22;20202;-90
2023/05/16 07:48:22;;;;;;;7.47;4.32;;;;;;;15.57;67.09;100854.91;4983046;23;20552;-92
2023/05/16 07:50:47;;;;;;;5.50;3.72;;;;;;;15.57;66.84;100852.31;4985708;28;20384;-94
2023/05/16 07:53:13;;;;;;;10.23;3.90;;;;;;;15.58;67.72;100835.72;4997971;28;20106;-88
2023/05/16 07:55:38;;;;;;;10.52;5.10;;;;;;;15.64;67.26;100819.69;4977633;28;20090;-84
2023/05/16 07:58:04;;;;;;;5.07;3.50;;;;;;;15.74;67.56;100820.75;4972601;28;20495;-89
2023/05/16 08:00:29;;;;;;;7.72;3.72;;;;;;;15.82;66.42;100795.91;4972988;28;20506;-89
2023/05/16 08:02:56;;;;;;;7.80;3.78;;;;;;;15.76;65.53;100795.41;4982868;28;20038;-90
2023/05/16 08:05:21;;;;;;;4.80;3.42;;;;;;;15.77;65.53;100778.81;4981387;28;20109;-89
2023/05/16 08:07:47;;;;;;;5.90;4.20;;;;;;;15.82;64.64;100785.47;4974561;28;20034;-90
2023/05/16 08:10:12;;;;;;;7.10;3.72;;;;;;;15.86;64.82;100772.13;4974008;28;20364;-84
2023/05/16 08:12:38;;;;;;;8.75;3.63;;;;;;;16.03;64.70;100791.84;4972832;28;20520;-89
2023/05/16 08:15:04;;;;;;;6.80;3.75;;;;;;;16.06;63.86;100773.38;4958168;28;20034;-89
2023/05/16 08:17:30;;;;;;;6.25;4.38;;;;;;;16.06;63.01;100778.59;4971965;28;20051;-88
2023/05/16 08:19:55;;;;;;;7.60;4.40;;;;;;;16.03;63.50;100773.59;4969086;28;20081;-86
2023/05/16 08:22:21;;;;;;;7.85;4.20;;;;;;;16.25;63.72;100804.25;4976493;28;20027;-93
2023/05/16 08:24:46;;;;;;;7.40;4.95;;;;;;;16.39;63.03;100798.03;4985063;28;20039;-92
2023/05/16 08:27:13;;;;;;;11.93;5.50;;;;;;;16.41;62.10;100777.88;4974651;28;20034;-92
2023/05/16 08:29:38;;;;;;;8.18;4.45;;;;;;;16.43;62.63;100774.22;4977613;28;20030;-92
2023/05/16 08:32:04;;;;;;;8.95;4.38;;;;;;;16.47;61.36;100778.28;4944099;28;20147;-84
2023/05/16 08:34:31;;;;;;;10.55;4.60;;;;;;;16.47;62.23;100773.06;4980881;28;20022;-94
2023/05/16 08:36:56;;;;;;;6.03;3.83;;;;;;;16.43;61.96;100765.56;5004428;28;20033;-87
2023/05/16 08:39:21;;;;;;;8.23;4.60;;;;;;;16.56;61.75;100789.84;4977723;28;20034;-85
2023/05/16 08:41:47;;;;;;;7.95;4.32;;;;;;;16.52;61.49;100825.81;4958031;28;20439;-89
2023/05/16 08:44:20;;;;;;;6.30;3.85;;;;;;;16.34;62.34;100819.25;4985896;28;20041;-87
2023/05/16 08:46:55;;;;;;;4.97;3.60;;;;;;;16.27;62.83;100807.56;4985641;28;20066;-88
2023/05/16 08:49:20;;;;;;;6.85;3.90;;;;;;;16.47;62.62;100830.50;4960066;28;20113;-88
2023/05/16 08:51:47;;;;;;;6.60;4.30;;;;;;;16.31;61.70;100828.13;4974302;28;20117;-90
2023/05/16 08:54:13;;;;;;;6.65;3.92;;;;;;;16.44;61.90;100866.47;4990020;28;20038;-91
2023/05/16 08:56:42;;;;;;;7.65;4.45;;;;;;;16.43;62.59;100857.78;4974285;28;20039;-92
2023/05/16 08:59:07;;;;;;;7.38;4.32;;;;;;;16.53;63.44;100847.53;4976747;28;20491;-88
2023/05/16 09:01:33;;;;;;;5.15;3.78;;;;;;;16.54;64.77;100836.16;4970903;28;20023;-89
2023/05/16 09:03:59;;;;;;;5.32;3.55;;;;;;;16.64;61.83;100855.44;4962392;28;20102;-91
2023/05/16 09:06:25;;;;;;;15.13;3.80;;;;;;;16.66;61.67;100855.34;4974089;28;20456;-91
2023/05/16 09:08:52;;;;;;;6.40;4.47;;;;;;;16.71;62.95;100842.78;4957824;28;20034;-92
2023/05/16 09:11:18;;;;;;;9.15;4.38;;;;;;;16.70;62.99;100830.69;4982896;28;20038;-92
2023/05/16 09:13:43;;;;;;;7.63;4.38;;;;;;;16.78;62.45;100834.41;4974620;28;20073;-90
2023/05/16 09:16:16;;;;;;;10.25;4.18;;;;;;;16.64;61.25;100804.03;4976542;28;20034;-87
2023/05/16 09:18:43;;;;;;;9.52;4.07;;;;;;;16.78;61.38;100815.31;4971886;28;20062;-88
2023/05/16 09:21:09;;;;;;;6.32;4.13;;;;;;;16.83;61.81;100797.53;4987608;28;20039;-90
2023/05/16 09:23:35;;;;;;;7.63;4.35;;;;;;;16.87;61.38;100797.19;4959399;28;20035;-86
2023/05/16 09:26:00;;;;;;;6.25;4.10;;;;;;;16.80;61.44;100769.00;4970451;28;20026;-85
2023/05/16 09:28:26;;;;;;;11.52;6.95;;;;;;;16.88;62.42;100736.13;4969346;28;20503;-86
2023/05/16 09:30:52;;;;;;;7.07;3.65;;;;;;;16.71;61.25;100783.53;4952555;28;20042;-89
2023/05/16 09:33:17;;;;;;;10.55;4.75;;;;;;;16.64;61.83;100785.75;4960767;28;20411;-87
2023/05/16 09:35:43;;;;;;;10.15;4.10;;;;;;;16.62;62.33;100797.25;4989926;28;20026;-91
2023/05/16 09:38:16;;;;;;;8.25;4.43;;;;;;;16.68;62.09;100812.50;4984720;28;20042;-91
2023/05/16 09:40:41;;;;;;;6.10;3.92;;;;;;;16.74;62.86;100826.94;4963720;28;20050;-90
2023/05/16 09:43:07;;;;;;;6.43;4.32;;;;;;;16.71;61.68;100796.59;4982610;28;20031;-90
2023/05/16 09:45:33;;;;;;;6.43;4.00;;;;;;;16.71;62.21;100822.72;4976216;28;20042;-88
2023/05/16 09:48:11;;;;;;;6.93;4.13;;;;;;;16.75;63.45;100813.75;4937269;28;20070;-87
2023/05/16 09:50:37;;;;;;;6.97;3.97;;;;;;;16.76;63.51;100799.75;4975144;28;20054;-86
2023/05/16 09:53:03;;;;;;;8.15;4.25;;;;;;;16.79;63.67;100824.81;4970144;28;20110;-87
2023/05/16 09:55:29;;;;;;;7.00;3.75;;;;;;;16.81;64.25;100813.31;4967186;28;20063;-87
2023/05/16 09:57:55;;;;;;;5.75;3.80;;;;;;;16.76;63.77;100773.63;4938938;28;20066;-87
2023/05/16 10:00:20;;;;;;;4.88;3.58;;;;;;;16.87;62.47;100797.19;4970397;28;20117;-87
2023/05/16 10:02:46;;;;;;;4.95;3.85;;;;;;;16.67;62.56;100774.25;4960707;28;20038;-91
2023/05/16 10:05:12;;;;;;;5.30;3.88;;;;;;;16.83;63.48;100785.31;4968082;28;20102;-86
2023/05/16 10:07:37;;;;;;;6.22;3.83;;;;;;;16.85;64.83;100799.06;4957309;28;20026;-91
2023/05/16 10:10:05;;;;;;;5.40;3.80;;;;;;;16.91;62.68;100793.41;5001812;28;20155;-85
2023/05/16 10:12:30;;;;;;;5.47;4.03;;;;;;;16.95;62.94;100803.66;4958079;28;20024;-87
2023/05/16 10:14:56;;;;;;;6.00;3.70;;;;;;;16.88;62.83;100798.00;4936901;28;20046;-85
2023/05/16 10:17:22;;;;;;;6.65;4.38;;;;;;;16.91;64.61;100816.94;4979889;28;20044;-85
2023/05/16 10:19:47;;;;;;;6.50;4.25;;;;;;;16.85;62.81;100798.25;4960017;28;20031;-87
2023/05/16 10:22:13;;;;;;;6.63;3.85;;;;;;;16.84;61.65;100812.25;4942974;28;20098;-89
2023/05/16 10:25:14;;;;;;;6.15;4.20;;;;;;;16.84;62.78;100807.03;4950474;28;20039;-90
2023/05/16 10:27:41;;;;;;;12.57;6.70;;;;;;;16.87;62.60;100828.53;4934875;28;20072;-91
2023/05/16 10:30:08;;;;;;;14.50;8.07;;;;;;;16.88;62.01;100835.44;4975124;28;20108;-92
2023/05/16 10:32:33;;;;;;;22.52;13.57;;;;;;;16.86;62.14;100826.88;4954829;28;20122;-88
2023/05/16 10:35:00;;;;;;;6.15;4.78;;;;;;;16.78;63.45;100810.06;4943494;28;20034;-91
2023/05/16 10:37:26;;;;;;;9.68;4.38;;;;;;;16.89;64.32;100810.13;4993876;23;20054;-91
2023/05/16 10:39:52;;;;;;;6.45;4.10;;;;;;;16.92;63.60;100809.94;5001733;28;20479;-91
2023/05/16 10:42:19;;;;;;;9.77;4.88;;;;;;;16.94;63.31;100799.38;4994953;28;20035;-86
2023/05/16 10:44:44;;;;;;;6.35;4.20;;;;;;;16.99;62.70;100803.28;4989456;28;20175;-92
2023/05/16 10:47:10;;;;;;;8.63;5.13;;;;;;;16.79;63.45;100773.38;4949442;28;20536;-85
2023/05/16 10:49:39;;;;;;;6.20;3.75;;;;;;;16.84;63.09;100773.91;4976259;28;20035;-89
2023/05/16 10:52:12;;;;;;;5.65;4.38;;;;;;;16.95;64.19;100806.25;4985034;28;20027;-87
2023/05/16 10:54:41;;;;;;;;;;;;;;;17.02;64.01;100808.31;4973317;28;20042;-95
2023/05/16 10:57:17;;;;;;;9.13;4.60;;;;;;;16.94;63.87;100796.75;4990743;28;19929;-90
2023/05/16 10:59:46;;;;;;;7.15;3.78;;;;;;;17.02;62.88;100804.88;4971329;28;20027;-93
2023/05/16 11:02:21;;;;;;;5.13;3.85;;;;;;;16.96;62.64;100789.63;4994473;28;20511;-92
2023/05/16 11:04:58;;;;;;;8.55;4.15;;;;;;;17.05;63.72;100776.72;4975666;28;20027;-90
2023/05/16 11:07:24;;;;;;;5.75;3.88;;;;;;;17.16;63.54;100770.69;4992030;28;20419;-88
2023/05/16 11:10:10;;;;;;;6.68;4.55;;;;;;;17.10;63.17;100760.69;4987924;28;20491;-88
2023/05/16 11:12:49;;;;;;;6.15;4.65;;;;;;;17.07;63.48;100760.91;4962518;28;20125;-90
2023/05/16 11:15:20;;;;;;;5.60;4.20;;;;;;;17.06;63.50;100759.25;4978330;28;20054;-93
2023/05/16 11:17:46;;;;;;;8.15;4.75;;;;;;;16.94;63.89;100744.47;4992185;28;20022;-90
2023/05/16 11:20:31;;;;;;;13.18;5.40;;;;;;;16.90;64.06;100746.47;4993329;28;20070;-92
2023/05/16 11:23:23;;;;;;;7.15;4.60;;;;;;;17.02;64.11;100773.50;4973140;28;20035;-92
2023/05/16 11:25:53;;;;;;;9.53;5.10;;;;;;;16.94;64.59;100770.63;4978260;28;20049;-93